createdAt,value
2022-09-16T00:01:35.909Z,12.60
2022-09-16T00:04:10.701Z,12.50
2022-09-16T00:06:39.628Z,12.40
2022-09-16T00:09:08.440Z,12.30
2022-09-16T00:11:36.522Z,12.10
2022-09-16T00:14:05.045Z,12.10
2022-09-16T00:16:33.525Z,12.00
2022-09-16T00:19:03.246Z,12.10
2022-09-16T00:21:30.883Z,12.10
2022-09-16T00:23:59.363Z,12.20
2022-09-16T00:26:26.305Z,12.20
2022-09-16T00:28:54.468Z,12.10
2022-09-16T00:31:22.817Z,12.10
2022-09-16T00:33:51.277Z,12.10
2022-09-16T00:36:20.384Z,12.10
2022-09-16T00:38:53.165Z,12.00
2022-09-16T00:41:22.682Z,12.00
2022-09-16T00:43:53.878Z,12.00
2022-09-16T00:46:44.190Z,12.00
2022-09-16T00:49:18.523Z,12.00
2022-09-16T00:51:52.608Z,12.00
2022-09-16T00:54:21.850Z,12.00
2022-09-16T00:56:54.119Z,12.00
2022-09-16T00:59:39.065Z,12.10
2022-09-16T01:02:11.620Z,12.10
2022-09-16T01:05:08.070Z,12.10
2022-09-16T01:07:42.047Z,12.10
2022-09-16T01:10:10.612Z,12.10
2022-09-16T01:12:41.815Z,12.20
2022-09-16T01:15:14.418Z,12.20
2022-09-16T01:18:08.363Z,12.20
2022-09-16T01:20:56.444Z,12.20
2022-09-16T01:24:04.330Z,12.20
2022-09-16T01:27:02.927Z,12.30
2022-09-16T01:30:13.717Z,12.30
2022-09-16T01:33:05.214Z,12.30
2022-09-16T01:36:00.213Z,12.30
2022-09-16T01:38:47.066Z,12.30
2022-09-16T01:41:21.745Z,12.30
2022-09-16T01:44:21.149Z,12.40
2022-09-16T01:46:56.984Z,12.40
2022-09-16T01:50:00.775Z,12.40
2022-09-16T01:52:41.740Z,12.40
2022-09-16T01:55:25.726Z,12.40
2022-09-16T01:58:03.388Z,12.40
2022-09-16T02:00:32.879Z,12.40
2022-09-16T02:03:19.903Z,12.40
2022-09-16T02:06:09.616Z,12.30
2022-09-16T02:08:44.357Z,12.30
2022-09-16T02:11:15.920Z,12.30
2022-09-16T02:13:49.759Z,12.40
2022-09-16T02:16:35.967Z,12.40
2022-09-16T02:19:12.649Z,12.40
2022-09-16T02:21:45.897Z,12.40
2022-09-16T02:24:19.230Z,12.40
2022-09-16T02:26:55.542Z,12.40
2022-09-16T02:29:28.739Z,12.30
2022-09-16T02:32:00.411Z,12.30
2022-09-16T02:34:36.777Z,12.30
2022-09-16T02:37:10.428Z,12.20
2022-09-16T02:39:41.391Z,12.20
2022-09-16T02:42:08.367Z,12.10
2022-09-16T02:44:36.959Z,12.10
2022-09-16T02:47:42.697Z,12.00
2022-09-16T02:50:30.727Z,12.00
2022-09-16T02:53:41.862Z,12.00
2022-09-16T02:56:37.040Z,12.00
2022-09-16T02:59:06.934Z,12.00
2022-09-16T03:01:43.320Z,12.00
2022-09-16T03:04:12.366Z,12.10
2022-09-16T03:06:40.882Z,12.10
2022-09-16T03:09:12.299Z,12.10
2022-09-16T03:11:57.812Z,12.10
2022-09-16T03:14:51.159Z,12.10
2022-09-16T03:17:38.125Z,12.20
2022-09-16T03:20:22.689Z,12.20
2022-09-16T03:23:08.884Z,12.20
2022-09-16T03:26:05.687Z,12.20
2022-09-16T03:28:50.296Z,12.20
2022-09-16T03:31:26.454Z,12.20
2022-09-16T03:34:06.617Z,12.20
2022-09-16T03:36:39.399Z,12.20
2022-09-16T03:39:06.556Z,12.20
2022-09-16T03:41:38.015Z,12.20
2022-09-16T03:44:05.394Z,12.20
2022-09-16T03:46:33.642Z,12.20
2022-09-16T03:49:02.170Z,12.10
2022-09-16T03:51:29.370Z,12.20
2022-09-16T03:53:57.379Z,12.30
2022-09-16T03:56:24.943Z,12.30
2022-09-16T03:58:53.071Z,12.30
2022-09-16T04:01:21.390Z,12.30
2022-09-16T04:03:50.670Z,12.30
2022-09-16T04:06:18.309Z,12.30
2022-09-16T04:08:46.520Z,12.20
2022-09-16T04:11:13.352Z,12.20
2022-09-16T04:13:41.174Z,12.20
2022-09-16T04:16:08.574Z,12.20
2022-09-16T04:18:36.674Z,12.20
2022-09-16T04:21:04.990Z,12.30
2022-09-16T04:23:32.612Z,12.30
2022-09-16T04:26:02.453Z,12.30
2022-09-16T04:28:30.964Z,12.30
2022-09-16T04:31:03.799Z,12.30
2022-09-16T04:33:36.177Z,12.30
2022-09-16T04:36:12.775Z,12.30
2022-09-16T04:38:42.690Z,12.20
2022-09-16T04:41:17.869Z,12.30
2022-09-16T04:43:48.587Z,12.30
2022-09-16T04:46:18.247Z,12.30
2022-09-16T04:48:48.505Z,12.30
2022-09-16T04:51:16.226Z,12.30
2022-09-16T04:53:44.985Z,12.40
2022-09-16T04:56:16.165Z,12.40
2022-09-16T04:58:46.287Z,12.50
2022-09-16T05:01:16.795Z,12.50
2022-09-16T05:03:49.422Z,12.60
2022-09-16T05:06:20.890Z,12.60
2022-09-16T05:08:50.622Z,12.60
2022-09-16T05:11:27.667Z,12.60
2022-09-16T05:13:58.957Z,12.60
2022-09-16T05:16:27.666Z,12.60
2022-09-16T05:18:58.608Z,12.50
2022-09-16T05:21:28.476Z,12.50
2022-09-16T05:24:02.793Z,12.50
2022-09-16T05:26:32.882Z,12.50
2022-09-16T05:29:06.652Z,12.60
2022-09-16T05:31:37.174Z,12.60
2022-09-16T05:34:13.531Z,12.70
2022-09-16T05:36:43.761Z,12.70
2022-09-16T05:39:28.450Z,12.80
2022-09-16T05:41:58.196Z,12.80
2022-09-16T05:44:28.551Z,12.90
2022-09-16T05:46:55.757Z,12.90
2022-09-16T05:49:24.927Z,13.00
2022-09-16T05:51:53.806Z,13.00
2022-09-16T05:54:25.380Z,13.10
2022-09-16T05:56:53.760Z,13.10
2022-09-16T05:59:26.634Z,13.10
2022-09-16T06:01:55.171Z,13.10
2022-09-16T06:04:22.511Z,13.10
2022-09-16T06:06:50.534Z,13.00
2022-09-16T06:09:21.214Z,12.90
2022-09-16T06:11:58.021Z,13.00
2022-09-16T06:14:28.513Z,13.00
2022-09-16T06:16:57.101Z,13.10
2022-09-16T06:19:25.418Z,13.20
2022-09-16T06:21:53.369Z,13.10
2022-09-16T06:24:21.925Z,13.00
2022-09-16T06:26:49.699Z,13.00
2022-09-16T06:29:17.885Z,13.00
2022-09-16T06:31:45.481Z,13.10
2022-09-16T06:34:18.565Z,13.20
2022-09-16T06:36:47.011Z,13.20
2022-09-16T06:39:17.075Z,13.20
2022-09-16T06:41:44.380Z,13.30
2022-09-16T06:44:11.522Z,13.30
2022-09-16T06:46:38.816Z,13.40
2022-09-16T06:49:06.940Z,13.30
2022-09-16T06:51:39.673Z,13.30
2022-09-16T06:54:10.004Z,13.40
2022-09-16T06:56:39.562Z,13.40
2022-09-16T06:59:07.257Z,13.30
2022-09-16T07:01:36.011Z,13.20
2022-09-16T07:04:06.613Z,13.20
2022-09-16T07:09:22.476Z,13.30
2022-09-16T07:11:50.693Z,13.10
2022-09-16T07:14:18.494Z,13.10
2022-09-16T07:16:50.759Z,13.10
2022-09-16T07:19:19.324Z,13.20
2022-09-16T07:21:47.315Z,13.20
2022-09-16T07:24:15.637Z,13.30
2022-09-16T07:26:44.871Z,13.30
2022-09-16T07:29:17.872Z,13.40
2022-09-16T07:31:45.463Z,13.50
2022-09-16T07:34:13.824Z,13.60
2022-09-16T07:36:46.919Z,13.60
2022-09-16T07:39:19.090Z,13.60
2022-09-16T07:41:48.472Z,13.60
2022-09-16T07:44:18.313Z,13.70
2022-09-16T07:46:46.918Z,13.70
2022-09-16T07:49:15.561Z,13.70
2022-09-16T07:51:42.940Z,13.80
2022-09-16T07:54:14.622Z,13.70
2022-09-16T07:56:42.860Z,13.70
2022-09-16T07:59:18.529Z,13.70
2022-09-16T08:01:48.929Z,13.70
2022-09-16T08:04:18.466Z,13.80
2022-09-16T08:06:45.551Z,13.80
2022-09-16T08:09:37.394Z,13.90
2022-09-16T08:12:05.421Z,14.00
2022-09-16T08:14:34.069Z,14.00
2022-09-16T08:17:02.134Z,14.10
2022-09-16T08:19:30.275Z,14.00
2022-09-16T08:21:58.199Z,14.10
2022-09-16T08:24:26.756Z,14.10
2022-09-16T08:29:22.518Z,14.40
2022-09-16T08:31:50.785Z,14.40
2022-09-16T08:34:18.464Z,14.50
2022-09-16T08:36:46.369Z,14.50
2022-09-16T08:39:15.175Z,14.50
2022-09-16T08:42:07.467Z,14.70
2022-09-16T08:45:12.932Z,14.70
2022-09-16T08:48:03.074Z,14.70
2022-09-16T08:50:35.114Z,14.70
2022-09-16T08:53:09.520Z,14.70
2022-09-16T08:55:41.409Z,14.60
2022-09-16T08:58:33.939Z,14.50
2022-09-16T09:01:10.656Z,14.50
2022-09-16T09:03:41.577Z,14.40
2022-09-16T09:06:14.427Z,14.30
2022-09-16T09:08:54.693Z,14.30
2022-09-16T09:11:35.772Z,14.20
2022-09-16T09:14:29.509Z,14.10
2022-09-16T09:17:05.472Z,13.90
2022-09-16T09:19:48.548Z,13.80
2022-09-16T09:22:24.163Z,13.80
2022-09-16T09:25:25.259Z,13.80
2022-09-16T09:28:10.858Z,13.80
2022-09-16T09:30:43.970Z,13.80
2022-09-16T09:33:46.490Z,13.90
2022-09-16T09:36:30.480Z,14.00
2022-09-16T09:39:32.183Z,13.80
2022-09-16T09:42:16.751Z,13.80
2022-09-16T09:45:18.599Z,13.80
2022-09-16T09:47:58.985Z,13.70
2022-09-16T09:50:43.661Z,13.60
2022-09-16T09:53:47.016Z,13.60
2022-09-16T09:56:33.918Z,13.60
2022-09-16T09:59:31.312Z,13.70
2022-09-16T10:02:01.966Z,13.80
2022-09-16T10:04:37.573Z,14.00
2022-09-16T10:07:06.344Z,14.10
2022-09-16T10:09:37.156Z,14.20
2022-09-16T10:12:05.424Z,14.30
2022-09-16T10:14:39.554Z,15.10
2022-09-16T10:17:16.862Z,15.70
2022-09-16T10:19:56.975Z,16.30
2022-09-16T10:22:30.876Z,16.70
2022-09-16T10:25:06.835Z,17.20
2022-09-16T10:27:37.487Z,17.20
2022-09-16T10:30:13.644Z,16.80
2022-09-16T10:32:46.313Z,16.40
2022-09-16T10:35:24.966Z,16.20
2022-09-16T10:37:59.493Z,16.20
2022-09-16T10:40:27.989Z,16.20
2022-09-16T10:43:04.414Z,16.20
2022-09-16T10:45:49.806Z,16.10
2022-09-16T10:48:28.644Z,16.00
2022-09-16T10:50:57.713Z,15.90
2022-09-16T10:53:44.104Z,15.80
2022-09-16T10:56:26.128Z,15.60
2022-09-16T10:59:11.839Z,15.20
2022-09-16T11:02:15.289Z,14.80
2022-09-16T11:05:24.061Z,14.50
2022-09-16T11:08:13.929Z,14.30
2022-09-16T11:11:11.800Z,13.90
2022-09-16T11:13:52.042Z,13.30
2022-09-16T11:16:57.203Z,13.00
2022-09-16T11:19:50.553Z,12.60
2022-09-16T11:22:48.757Z,12.30
2022-09-16T11:25:51.833Z,12.00
2022-09-16T11:28:46.737Z,11.80
2022-09-16T11:31:53.262Z,11.80
2022-09-16T11:34:40.668Z,12.00
2022-09-16T11:37:14.791Z,12.00
2022-09-16T11:40:14.574Z,11.90
2022-09-16T11:43:11.559Z,11.60
2022-09-16T11:46:04.193Z,11.40
2022-09-16T11:48:42.135Z,11.20
2022-09-16T11:51:35.228Z,11.20
2022-09-16T11:57:00.402Z,11.30
2022-09-16T11:59:58.362Z,11.40
2022-09-16T12:02:59.444Z,11.50
2022-09-16T12:05:53.591Z,11.50
2022-09-16T12:09:07.643Z,11.50
2022-09-16T12:11:44.399Z,11.50
2022-09-16T12:14:44.121Z,11.50
2022-09-16T12:17:17.327Z,11.50
2022-09-16T12:20:31.410Z,11.70
2022-09-16T12:23:14.669Z,11.70
2022-09-16T12:25:48.415Z,11.80
2022-09-16T12:28:26.314Z,12.00
2022-09-16T12:31:24.253Z,12.30
2022-09-16T12:34:00.387Z,12.90
2022-09-16T12:36:33.284Z,13.20
2022-09-16T12:39:02.168Z,13.60
2022-09-16T12:41:50.754Z,14.40
2022-09-16T12:44:35.857Z,14.50
2022-09-16T12:47:40.133Z,14.40
2022-09-16T12:50:25.621Z,13.90
2022-09-16T12:53:34.480Z,13.70
2022-09-16T12:56:17.524Z,13.50
2022-09-16T12:58:53.238Z,13.80
2022-09-16T13:01:38.359Z,14.10
2022-09-16T13:04:22.269Z,14.10
2022-09-16T13:06:59.981Z,13.70
2022-09-16T13:09:33.366Z,13.40
2022-09-16T13:14:56.653Z,12.50
2022-09-16T13:17:31.430Z,12.30
2022-09-16T13:20:23.049Z,12.20
2022-09-16T13:23:14.085Z,12.00
2022-09-16T13:26:03.305Z,11.90
2022-09-16T13:28:33.437Z,11.90
2022-09-16T13:31:15.384Z,11.90
2022-09-16T13:33:44.399Z,11.90
2022-09-16T13:36:16.952Z,12.00
2022-09-16T13:38:53.903Z,12.00
2022-09-16T13:41:40.481Z,12.10
2022-09-16T13:44:39.156Z,12.10
2022-09-16T13:47:09.413Z,12.10
2022-09-16T13:50:06.175Z,12.30
2022-09-16T13:52:35.135Z,12.40
2022-09-16T13:55:10.341Z,12.40
2022-09-16T13:58:04.023Z,12.30
2022-09-16T14:01:17.723Z,12.20
2022-09-16T14:03:56.929Z,11.90
2022-09-16T14:06:45.598Z,11.80
2022-09-16T14:09:46.297Z,11.80
2022-09-16T14:12:52.153Z,11.70
2022-09-16T14:15:22.347Z,11.80
2022-09-16T14:17:54.121Z,11.80
2022-09-16T14:20:24.181Z,11.80
2022-09-16T14:23:05.432Z,11.90
2022-09-16T14:25:39.049Z,11.80
2022-09-16T14:28:10.755Z,11.60
2022-09-16T14:30:48.056Z,11.70
2022-09-16T14:33:16.188Z,11.80
2022-09-16T14:35:47.284Z,11.70
2022-09-16T14:38:43.927Z,11.70
2022-09-16T14:41:09.302Z,11.80
2022-09-16T14:43:39.330Z,11.70
2022-09-16T14:46:09.262Z,11.60
2022-09-16T14:48:41.320Z,11.70
2022-09-16T14:51:24.906Z,11.70
2022-09-16T14:54:15.501Z,11.70
2022-09-16T14:56:42.877Z,11.60
2022-09-16T14:59:12.611Z,11.60
2022-09-16T15:01:44.875Z,11.60
2022-09-16T15:04:21.028Z,11.60
2022-09-16T15:06:55.420Z,11.60
2022-09-16T15:09:51.696Z,11.70
2022-09-16T15:12:25.464Z,11.60
2022-09-16T15:14:53.240Z,11.60
2022-09-16T15:17:24.523Z,11.70
2022-09-16T15:19:58.340Z,11.80
2022-09-16T15:22:27.882Z,11.80
2022-09-16T15:24:59.470Z,11.90
2022-09-16T15:27:32.550Z,12.00
2022-09-16T15:30:04.085Z,11.90
2022-09-16T15:32:42.442Z,11.90
2022-09-16T15:35:33.502Z,12.00
2022-09-16T15:38:12.727Z,12.00
2022-09-16T15:40:40.026Z,11.90
2022-09-16T15:43:21.828Z,11.90
2022-09-16T15:46:04.469Z,12.00
2022-09-16T15:48:43.044Z,11.90
2022-09-16T15:51:31.077Z,11.90
2022-09-16T15:54:17.049Z,11.90
2022-09-16T15:57:02.518Z,11.90
2022-09-16T16:00:13.300Z,11.90
2022-09-16T16:03:02.870Z,11.80
2022-09-16T16:05:31.913Z,11.70
2022-09-16T16:08:07.622Z,11.80
2022-09-16T16:10:40.042Z,11.90
2022-09-16T16:13:07.995Z,11.90
2022-09-16T16:15:39.145Z,11.90
2022-09-16T16:18:08.725Z,12.00
2022-09-16T16:20:38.344Z,12.00
2022-09-16T16:23:07.200Z,12.00
2022-09-16T16:25:34.862Z,12.00
2022-09-16T16:28:03.055Z,12.00
2022-09-16T16:30:31.409Z,12.00
2022-09-16T16:32:59.578Z,12.00
2022-09-16T16:35:27.670Z,11.90
2022-09-16T16:37:54.823Z,11.90
2022-09-16T16:40:24.282Z,11.90
2022-09-16T16:42:53.126Z,11.80
2022-09-16T16:45:21.170Z,11.80
2022-09-16T16:47:51.498Z,11.80
2022-09-16T16:50:19.663Z,11.80
2022-09-16T16:52:51.157Z,11.80
2022-09-16T16:55:18.984Z,11.80
2022-09-16T16:57:46.027Z,11.70
2022-09-16T17:00:15.830Z,11.70
2022-09-16T17:02:43.334Z,11.70
2022-09-16T17:05:11.669Z,11.60
2022-09-16T17:07:38.902Z,11.50
2022-09-16T17:10:07.409Z,11.50
2022-09-16T17:12:34.978Z,11.50
2022-09-16T17:15:03.442Z,11.40
2022-09-16T17:17:34.503Z,11.40
2022-09-16T17:20:04.450Z,11.30
2022-09-16T17:22:34.447Z,11.30
2022-09-16T17:25:04.076Z,11.30
2022-09-16T17:27:32.492Z,11.30
2022-09-16T17:30:03.361Z,11.30
2022-09-16T17:32:38.555Z,11.20
2022-09-16T17:35:07.231Z,11.20
2022-09-16T17:37:38.533Z,11.20
2022-09-16T17:40:06.965Z,11.20
2022-09-16T17:42:34.834Z,11.20
2022-09-16T17:45:08.645Z,11.20
2022-09-16T17:47:36.818Z,11.10
2022-09-16T17:50:05.498Z,11.10
2022-09-16T17:52:33.496Z,11.10
2022-09-16T17:55:00.967Z,11.00
2022-09-16T17:57:32.975Z,11.00
2022-09-16T18:00:00.862Z,11.10
2022-09-16T18:02:43.088Z,11.00
2022-09-16T18:05:10.864Z,11.00
2022-09-16T18:07:38.875Z,11.00
2022-09-16T18:10:08.369Z,11.00
2022-09-16T18:12:36.132Z,11.00
2022-09-16T18:15:04.865Z,11.00
2022-09-16T18:17:32.854Z,11.00
2022-09-16T18:20:03.714Z,11.00
2022-09-16T18:22:34.368Z,11.00
2022-09-16T18:25:04.562Z,11.00
2022-09-16T18:27:32.243Z,10.90
2022-09-16T18:30:01.628Z,10.80
2022-09-16T18:32:32.925Z,10.80
2022-09-16T18:35:00.844Z,10.80
2022-09-16T18:37:28.939Z,10.80
2022-09-16T18:39:57.359Z,10.80
2022-09-16T18:42:25.118Z,10.80
2022-09-16T18:44:52.952Z,10.70
2022-09-16T18:47:21.115Z,10.70
2022-09-16T18:49:49.005Z,10.70
2022-09-16T18:52:17.181Z,10.70
2022-09-16T18:54:46.907Z,10.70
2022-09-16T18:57:14.269Z,10.70
2022-09-16T18:59:42.221Z,10.70
2022-09-16T19:02:11.335Z,10.70
2022-09-16T19:04:41.956Z,10.70
2022-09-16T19:07:12.596Z,10.70
2022-09-16T19:09:40.958Z,10.70
2022-09-16T19:12:12.619Z,10.70
2022-09-16T19:14:41.227Z,10.70
2022-09-16T19:17:09.034Z,10.60
2022-09-16T19:19:37.375Z,10.70
2022-09-16T19:22:06.025Z,10.60
2022-09-16T19:24:34.578Z,10.60
2022-09-16T19:27:02.480Z,10.60
2022-09-16T19:29:30.074Z,10.60
2022-09-16T19:31:58.789Z,10.60
2022-09-16T19:34:25.947Z,10.60
2022-09-16T19:36:56.278Z,10.60
2022-09-16T19:39:24.784Z,10.60
2022-09-16T19:41:51.599Z,10.50
2022-09-16T19:44:19.087Z,10.50
2022-09-16T19:46:49.265Z,10.50
2022-09-16T19:49:22.706Z,10.50
2022-09-16T19:51:52.714Z,10.50
2022-09-16T19:54:20.892Z,10.40
2022-09-16T19:56:50.902Z,10.40
2022-09-16T19:59:19.433Z,10.40
2022-09-16T20:01:48.150Z,10.40
2022-09-16T20:04:19.961Z,10.40
2022-09-16T20:06:49.870Z,10.40
2022-09-16T20:09:17.378Z,10.40
2022-09-16T20:11:46.810Z,10.40
2022-09-16T20:14:20.350Z,10.40
2022-09-16T20:16:49.444Z,10.50
2022-09-16T20:19:19.894Z,10.50
2022-09-16T20:21:48.483Z,10.50
2022-09-16T20:24:18.655Z,10.50
2022-09-16T20:26:48.199Z,10.50
2022-09-16T20:29:19.650Z,10.50
2022-09-16T20:31:49.408Z,10.50
2022-09-16T20:34:18.457Z,10.50
2022-09-16T20:36:46.784Z,10.50
2022-09-16T20:39:14.761Z,10.50
2022-09-16T20:41:42.430Z,10.50
2022-09-16T20:44:15.584Z,10.50
2022-09-16T20:46:43.390Z,10.50
2022-09-16T20:49:19.137Z,10.50
2022-09-16T20:51:46.645Z,10.40
2022-09-16T20:54:16.390Z,10.40
2022-09-16T20:56:47.331Z,10.40
2022-09-16T20:59:17.619Z,10.30
2022-09-16T21:01:45.335Z,10.20
2022-09-16T21:04:16.114Z,10.20
2022-09-16T21:06:44.970Z,10.20
2022-09-16T21:09:14.266Z,10.30
2022-09-16T21:11:45.687Z,10.30
2022-09-16T21:14:15.946Z,10.30
2022-09-16T21:16:45.647Z,10.30
2022-09-16T21:19:13.789Z,10.40
2022-09-16T21:21:44.392Z,10.40
2022-09-16T21:24:13.145Z,10.40
2022-09-16T21:26:42.767Z,10.40
2022-09-16T21:29:12.252Z,10.50
2022-09-16T21:31:42.009Z,10.50
2022-09-16T21:34:16.440Z,10.50
2022-09-16T21:36:44.772Z,10.60
2022-09-16T21:39:14.312Z,10.70
2022-09-16T21:41:43.310Z,10.60
2022-09-16T21:44:11.538Z,10.50
2022-09-16T21:46:43.224Z,10.40
2022-09-16T21:49:22.827Z,10.40
2022-09-16T21:51:55.396Z,10.30
2022-09-16T21:54:24.543Z,10.20
2022-09-16T21:56:52.185Z,10.10
2022-09-16T21:59:20.649Z,10.10
2022-09-16T22:01:50.344Z,9.90
2022-09-16T22:04:20.662Z,9.90
2022-09-16T22:06:51.358Z,9.90
2022-09-16T22:09:19.022Z,9.80
2022-09-16T22:11:47.782Z,9.70
2022-09-16T22:14:15.622Z,9.70
2022-09-16T22:16:42.458Z,9.60
2022-09-16T22:19:18.386Z,9.50
2022-09-16T22:21:49.273Z,9.40
2022-09-16T22:24:20.225Z,9.30
2022-09-16T22:26:51.962Z,9.30
2022-09-16T22:29:20.507Z,9.30
2022-09-16T22:31:48.150Z,9.30
2022-09-16T22:34:18.268Z,9.30
2022-09-16T22:36:46.043Z,9.30
2022-09-16T22:39:16.616Z,9.40
2022-09-16T22:41:44.114Z,9.40
2022-09-16T22:44:13.050Z,9.30
2022-09-16T22:46:46.240Z,9.30
2022-09-16T22:49:15.343Z,9.20
2022-09-16T22:51:43.523Z,9.20
2022-09-16T22:54:12.759Z,9.10
2022-09-16T22:56:42.580Z,9.10
2022-09-16T22:59:17.771Z,9.10
2022-09-16T23:01:45.614Z,9.20
2022-09-16T23:04:14.729Z,9.20
2022-09-16T23:06:43.262Z,9.20
2022-09-16T23:09:12.900Z,9.30
2022-09-16T23:11:41.219Z,9.30
2022-09-16T23:14:13.158Z,9.30
2022-09-16T23:16:40.051Z,9.40
2022-09-16T23:19:10.035Z,9.40
2022-09-16T23:21:38.930Z,9.40
2022-09-16T23:24:08.325Z,9.40
2022-09-16T23:26:37.999Z,9.40
2022-09-16T23:29:07.686Z,9.40
2022-09-16T23:31:40.836Z,9.40
2022-09-16T23:34:11.965Z,9.40
2022-09-16T23:36:41.697Z,9.40
2022-09-16T23:39:13.270Z,9.40
2022-09-16T23:41:42.408Z,9.40
2022-09-16T23:44:13.433Z,9.40
2022-09-16T23:46:42.245Z,9.40
2022-09-16T23:49:10.086Z,9.40
2022-09-16T23:51:37.955Z,9.40
2022-09-16T23:54:05.240Z,9.40
2022-09-16T23:56:33.389Z,9.40
2022-09-16T23:59:01.182Z,9.40
